createdAt,value
2023-02-27T00:02:19.689Z,101159.94
2023-02-27T00:04:47.479Z,101161.66
2023-02-27T00:07:15.357Z,101166.09
2023-02-27T00:09:43.312Z,101162.59
2023-02-27T00:12:11.948Z,101154.78
2023-02-27T00:14:40.851Z,101160.13
2023-02-27T00:17:10.090Z,101154.03
2023-02-27T00:19:37.829Z,101151.59
2023-02-27T00:22:05.577Z,101148.97
2023-02-27T00:24:33.325Z,101150.75
2023-02-27T00:27:01.056Z,101145.63
2023-02-27T00:29:28.881Z,101148.28
2023-02-27T00:31:56.695Z,101147.50
2023-02-27T00:34:26.097Z,101144.91
2023-02-27T00:36:53.915Z,101146.63
2023-02-27T00:39:22.024Z,101147.59
2023-02-27T00:41:49.807Z,101139.84
2023-02-27T00:44:17.691Z,101147.72
2023-02-27T00:46:45.462Z,101149.47
2023-02-27T00:49:13.855Z,101146.84
2023-02-27T00:51:43.052Z,101143.38
2023-02-27T00:54:10.754Z,101140.88
2023-02-27T00:56:38.461Z,101145.22
2023-02-27T00:59:06.159Z,101151.44
2023-02-27T01:01:33.899Z,101152.38
2023-02-27T01:04:01.762Z,101151.50
2023-02-27T01:06:29.506Z,101152.38
2023-02-27T01:08:58.711Z,101145.44
2023-02-27T01:11:26.836Z,101144.63
2023-02-27T01:13:54.774Z,101149.81
2023-02-27T01:16:22.668Z,101135.06
2023-02-27T01:18:50.362Z,101142.94
2023-02-27T01:21:18.201Z,101147.34
2023-02-27T01:23:45.970Z,101144.72
2023-02-27T01:26:15.022Z,101137.69
2023-02-27T01:28:42.996Z,101146.50
2023-02-27T01:31:10.704Z,101146.63
2023-02-27T01:33:38.417Z,101145.78
2023-02-27T01:36:06.749Z,101144.97
2023-02-27T01:38:34.568Z,101143.19
2023-02-27T01:41:02.700Z,101141.41
2023-02-27T01:43:31.886Z,101141.41
2023-02-27T01:46:00.746Z,101143.16
2023-02-27T01:48:31.832Z,101144.94
2023-02-27T01:51:03.264Z,101139.84
2023-02-27T01:53:33.847Z,101136.38
2023-02-27T01:56:06.668Z,101140.69
2023-02-27T01:58:35.779Z,101140.69
2023-02-27T02:01:03.763Z,101149.34
2023-02-27T02:03:36.881Z,101148.50
2023-02-27T02:06:06.316Z,101141.50
2023-02-27T02:08:37.882Z,101138.94
2023-02-27T02:11:07.399Z,101139.00
2023-02-27T02:13:37.150Z,101142.47
2023-02-27T02:16:23.085Z,101135.66
2023-02-27T02:18:59.932Z,101138.31
2023-02-27T02:22:09.055Z,101144.44
2023-02-27T02:25:11.727Z,101147.09
2023-02-27T02:27:54.878Z,101142.91
2023-02-27T02:30:40.494Z,101142.06
2023-02-27T02:33:49.877Z,101142.88
2023-02-27T02:37:05.476Z,101147.25
2023-02-27T02:40:05.001Z,101141.19
2023-02-27T02:42:37.897Z,101139.44
2023-02-27T02:45:11.793Z,101138.53
2023-02-27T02:47:49.037Z,101134.16
2023-02-27T02:50:26.765Z,101134.97
2023-02-27T02:53:04.857Z,101133.28
2023-02-27T02:55:36.749Z,101133.28
2023-02-27T02:58:11.201Z,101135.06
2023-02-27T03:00:46.640Z,101138.53
2023-02-27T03:03:20.336Z,101139.44
2023-02-27T03:05:55.846Z,101134.16
2023-02-27T03:08:27.928Z,101137.66
2023-02-27T03:10:59.007Z,101138.50
2023-02-27T03:13:32.102Z,101141.13
2023-02-27T03:16:05.869Z,101138.50
2023-02-27T03:18:38.068Z,101151.59
2023-02-27T03:21:11.369Z,101146.38
2023-02-27T03:23:44.664Z,101148.09
2023-02-27T03:26:20.571Z,101143.72
2023-02-27T03:28:56.318Z,101145.50
2023-02-27T03:31:31.936Z,101148.03
2023-02-27T03:34:09.267Z,101150.66
2023-02-27T03:36:46.562Z,101149.88
2023-02-27T03:39:26.230Z,101151.56
2023-02-27T03:42:03.018Z,101148.94
2023-02-27T03:44:37.040Z,101148.97
2023-02-27T03:47:05.024Z,101161.09
2023-02-27T03:49:32.865Z,101154.16
2023-02-27T03:52:00.665Z,101153.34
2023-02-27T03:54:33.827Z,101162.13
2023-02-27T03:57:04.835Z,101166.41
2023-02-27T03:59:33.976Z,101160.34
2023-02-27T04:02:03.843Z,101163.88
2023-02-27T04:04:32.914Z,101167.34
2023-02-27T04:07:25.058Z,101164.72
2023-02-27T04:10:20.287Z,101175.25
2023-02-27T04:13:12.213Z,101172.66
2023-02-27T04:15:54.904Z,101183.91
2023-02-27T04:18:34.595Z,101181.28
2023-02-27T04:21:09.304Z,101176.09
2023-02-27T04:23:41.402Z,101174.41
2023-02-27T04:26:22.113Z,101179.56
2023-02-27T04:29:00.336Z,101183.91
2023-02-27T04:31:34.194Z,101181.28
2023-02-27T04:34:09.304Z,101186.53
2023-02-27T04:36:43.796Z,101186.56
2023-02-27T04:39:18.647Z,101199.66
2023-02-27T04:41:51.312Z,101193.59
2023-02-27T04:44:23.834Z,101196.25
2023-02-27T04:46:54.337Z,101199.75
2023-02-27T04:49:27.854Z,101197.16
2023-02-27T04:52:00.031Z,101197.16
2023-02-27T04:54:33.507Z,101199.78
2023-02-27T04:57:05.634Z,101201.59
2023-02-27T04:59:40.954Z,101205.94
2023-02-27T05:02:14.359Z,101207.59
2023-02-27T05:04:44.844Z,101205.97
2023-02-27T05:07:18.872Z,101206.81
2023-02-27T05:09:50.834Z,101213.84
2023-02-27T05:12:24.020Z,101207.75
2023-02-27T05:14:57.803Z,101209.44
2023-02-27T05:17:32.449Z,101216.44
2023-02-27T05:20:00.880Z,101218.19
2023-02-27T05:22:37.397Z,101216.44
2023-02-27T05:25:13.635Z,101219.91
2023-02-27T05:27:47.321Z,101222.59
2023-02-27T05:30:24.755Z,101224.34
2023-02-27T05:32:57.549Z,101220.00
2023-02-27T05:35:32.557Z,101218.28
2023-02-27T05:38:06.897Z,101222.66
2023-02-27T05:40:37.666Z,101223.50
2023-02-27T05:43:08.582Z,101235.69
2023-02-27T05:45:40.344Z,101227.91
2023-02-27T05:48:11.980Z,101230.56
2023-02-27T05:50:42.048Z,101233.16
2023-02-27T05:53:15.349Z,101231.44
2023-02-27T05:55:48.039Z,101238.41
2023-02-27T05:58:24.788Z,101235.81
2023-02-27T06:00:58.964Z,101234.88
2023-02-27T06:03:28.380Z,101237.47
2023-02-27T06:05:58.781Z,101237.50
2023-02-27T06:08:26.953Z,101233.22
2023-02-27T06:10:55.278Z,101238.47
2023-02-27T06:13:23.690Z,101234.97
2023-02-27T06:15:53.533Z,101241.03
2023-02-27T06:18:21.826Z,101236.72
2023-02-27T06:20:51.111Z,101245.41
2023-02-27T06:23:18.848Z,101242.09
2023-02-27T06:25:47.041Z,101247.38
2023-02-27T06:28:14.728Z,101252.66
2023-02-27T06:30:43.912Z,101250.00
2023-02-27T06:33:14.038Z,101263.91
2023-02-27T06:35:42.031Z,101264.84
2023-02-27T06:38:11.111Z,101270.03
2023-02-27T06:40:41.389Z,101273.41
2023-02-27T06:43:09.394Z,101280.34
2023-02-27T06:45:38.067Z,101278.69
2023-02-27T06:48:06.749Z,101279.50
2023-02-27T06:50:36.014Z,101274.28
2023-02-27T06:53:04.352Z,101279.53
2023-02-27T06:55:32.129Z,101277.78
2023-02-27T06:57:59.908Z,101290.78
2023-02-27T07:00:27.952Z,101292.50
2023-02-27T07:02:55.762Z,101290.72
2023-02-27T07:05:23.538Z,101290.66
2023-02-27T07:07:52.710Z,101290.47
2023-02-27T07:10:20.613Z,101296.50
2023-02-27T07:12:48.725Z,101295.66
2023-02-27T07:15:16.698Z,101299.94
2023-02-27T07:17:44.532Z,101294.66
2023-02-27T07:20:13.380Z,101297.16
2023-02-27T07:22:42.162Z,101302.28
2023-02-27T07:25:11.701Z,101307.44
2023-02-27T07:27:39.694Z,101300.38
2023-02-27T07:30:08.834Z,101297.66
2023-02-27T07:32:36.672Z,101305.41
2023-02-27T07:35:04.756Z,101315.78
2023-02-27T07:37:32.736Z,101310.44
2023-02-27T07:40:00.858Z,101312.88
2023-02-27T07:42:30.034Z,101307.84
2023-02-27T07:44:57.922Z,101307.75
2023-02-27T07:47:25.713Z,101302.91
2023-02-27T07:49:53.857Z,101310.91
2023-02-27T07:52:21.558Z,101304.53
2023-02-27T07:54:49.347Z,101308.25
2023-02-27T07:57:17.210Z,101315.75
2023-02-27T07:59:46.316Z,101305.34
2023-02-27T08:02:14.197Z,101302.72
2023-02-27T08:04:41.972Z,101298.50
2023-02-27T08:07:09.779Z,101306.81
2023-02-27T08:09:37.685Z,101306.53
2023-02-27T08:12:05.869Z,101304.59
2023-02-27T08:14:33.674Z,101301.59
2023-02-27T08:17:03.232Z,101312.31
2023-02-27T08:19:31.175Z,101306.53
2023-02-27T08:21:58.945Z,101315.91
2023-02-27T08:24:26.794Z,101308.72
2023-02-27T08:26:54.574Z,101305.47
2023-02-27T08:29:22.373Z,101307.53
2023-02-27T08:31:50.536Z,101313.50
2023-02-27T08:34:20.366Z,101315.63
2023-02-27T08:36:48.219Z,101317.06
2023-02-27T08:39:15.999Z,101317.53
2023-02-27T08:41:43.777Z,101317.94
2023-02-27T08:44:12.995Z,101308.59
2023-02-27T08:46:40.815Z,101319.44
2023-02-27T08:49:08.565Z,101314.06
2023-02-27T08:51:37.671Z,101315.38
2023-02-27T08:54:05.542Z,101320.34
2023-02-27T08:56:34.837Z,101313.72
2023-02-27T08:59:02.941Z,101321.66
2023-02-27T09:01:34.580Z,101315.16
2023-02-27T09:04:06.627Z,101311.88
2023-02-27T09:06:37.037Z,101318.41
2023-02-27T09:09:06.540Z,101323.53
2023-02-27T09:11:34.755Z,101324.66
2023-02-27T09:14:03.373Z,101320.38
2023-02-27T09:16:31.729Z,101322.63
2023-02-27T09:18:59.707Z,101314.31
2023-02-27T09:21:29.036Z,101324.38
2023-02-27T09:24:02.616Z,101326.22
2023-02-27T09:26:45.677Z,101326.16
2023-02-27T09:29:14.022Z,101332.53
2023-02-27T09:31:42.105Z,101331.50
2023-02-27T09:34:09.997Z,101328.44
2023-02-27T09:36:37.757Z,101334.44
2023-02-27T09:39:05.565Z,101336.69
2023-02-27T09:41:53.320Z,101335.47
2023-02-27T09:44:45.331Z,101340.59
2023-02-27T09:47:19.069Z,101340.69
2023-02-27T09:49:59.947Z,101348.09
2023-02-27T09:52:28.974Z,101347.09
2023-02-27T09:54:56.740Z,101345.84
2023-02-27T09:57:38.925Z,101351.06
2023-02-27T10:00:16.831Z,101342.75
2023-02-27T10:02:56.321Z,101349.03
2023-02-27T10:05:29.863Z,101351.25
2023-02-27T10:08:06.762Z,101365.81
2023-02-27T10:10:41.819Z,101349.25
2023-02-27T10:13:34.249Z,101354.41
2023-02-27T10:16:04.018Z,101359.53
2023-02-27T10:18:34.999Z,101351.91
2023-02-27T10:21:07.059Z,101355.38
2023-02-27T10:23:40.114Z,101355.50
2023-02-27T10:26:14.977Z,101357.19
2023-02-27T10:28:44.052Z,101357.59
2023-02-27T10:31:24.244Z,101362.75
2023-02-27T10:33:53.124Z,101358.91
2023-02-27T10:36:33.103Z,101351.59
2023-02-27T10:39:06.770Z,101361.75
2023-02-27T10:41:37.063Z,101351.19
2023-02-27T10:44:07.507Z,101356.00
2023-02-27T10:46:38.097Z,101357.88
2023-02-27T10:49:18.911Z,101360.50
2023-02-27T10:51:48.419Z,101364.28
2023-02-27T10:54:21.797Z,101361.44
2023-02-27T10:56:52.299Z,101369.91
2023-02-27T10:59:24.476Z,101367.00
2023-02-27T11:01:55.708Z,101364.28
2023-02-27T11:04:35.305Z,101354.19
2023-02-27T11:07:09.453Z,101359.72
2023-02-27T11:09:38.292Z,101359.91
2023-02-27T11:12:20.107Z,101341.63
2023-02-27T11:14:54.538Z,101353.69
2023-02-27T11:17:29.442Z,101347.81
2023-02-27T11:19:58.356Z,101349.97
2023-02-27T11:22:27.949Z,101341.13
2023-02-27T11:25:21.944Z,101337.81
2023-02-27T11:27:52.315Z,101338.34
2023-02-27T11:30:28.011Z,101331.53
2023-02-27T11:32:58.891Z,101333.25
2023-02-27T11:35:29.907Z,101334.38
2023-02-27T11:38:01.427Z,101323.00
2023-02-27T11:40:32.763Z,101323.19
2023-02-27T11:43:06.234Z,101322.78
2023-02-27T11:46:29.143Z,101329.56
2023-02-27T11:48:32.082Z,101333.59
2023-02-27T11:51:15.977Z,101326.84
2023-02-27T11:54:09.513Z,101323.75
2023-02-27T11:56:41.055Z,101321.44
2023-02-27T11:59:21.931Z,101318.19
2023-02-27T12:01:56.879Z,101327.38
2023-02-27T12:04:31.063Z,101319.50
2023-02-27T12:07:02.526Z,101310.75
2023-02-27T12:09:43.420Z,101317.75
2023-02-27T12:12:21.586Z,101313.09
2023-02-27T12:15:05.011Z,101310.47
2023-02-27T12:17:40.598Z,101309.16
2023-02-27T12:20:24.758Z,101298.78
2023-02-27T12:22:55.170Z,101310.25
2023-02-27T12:25:36.252Z,101312.69
2023-02-27T12:28:13.995Z,101294.47
2023-02-27T12:30:49.573Z,101298.97
2023-02-27T12:33:30.823Z,101289.34
2023-02-27T12:36:02.616Z,101289.13
2023-02-27T12:38:30.606Z,101287.97
2023-02-27T12:41:12.770Z,101285.13
2023-02-27T12:43:47.178Z,101277.16
2023-02-27T12:46:30.606Z,101278.91
2023-02-27T12:49:16.949Z,101273.78
2023-02-27T12:51:52.108Z,101275.44
2023-02-27T12:54:37.732Z,101280.09
2023-02-27T12:57:27.214Z,101271.38
2023-02-27T13:00:07.656Z,101267.84
2023-02-27T13:02:58.866Z,101272.75
2023-02-27T13:05:40.604Z,101267.34
2023-02-27T13:08:26.173Z,101269.81
2023-02-27T13:11:00.765Z,101272.59
2023-02-27T13:13:35.213Z,101260.94
2023-02-27T13:16:07.340Z,101256.19
2023-02-27T13:18:43.453Z,101252.44
2023-02-27T13:21:21.008Z,101258.19
2023-02-27T13:23:59.637Z,101253.84
2023-02-27T13:26:31.660Z,101259.31
2023-02-27T13:29:01.080Z,101252.81
2023-02-27T13:31:36.713Z,101258.97
2023-02-27T13:34:15.739Z,101251.38
2023-02-27T13:36:48.363Z,101259.75
2023-02-27T13:39:41.565Z,101253.69
2023-02-27T13:42:44.728Z,101251.22
2023-02-27T13:45:45.980Z,101248.44
2023-02-27T13:48:41.721Z,101244.91
2023-02-27T13:51:13.095Z,101247.44
2023-02-27T13:53:42.336Z,101246.16
2023-02-27T13:56:22.857Z,101253.13
2023-02-27T13:58:52.109Z,101251.25
2023-02-27T14:01:27.366Z,101251.63
2023-02-27T14:03:58.328Z,101249.41
2023-02-27T14:06:28.420Z,101256.94
2023-02-27T14:09:12.888Z,101259.19
2023-02-27T14:11:52.255Z,101257.84
2023-02-27T14:14:36.909Z,101266.72
2023-02-27T14:17:04.999Z,101260.81
2023-02-27T14:19:57.157Z,101251.44
2023-02-27T14:23:08.904Z,101256.75
2023-02-27T14:25:40.422Z,101269.59
2023-02-27T14:28:19.230Z,101274.47
2023-02-27T14:30:54.410Z,101269.72
2023-02-27T14:33:39.273Z,101266.16
2023-02-27T14:36:15.821Z,101277.03
2023-02-27T14:38:43.968Z,101277.59
2023-02-27T14:41:35.554Z,101264.69
2023-02-27T14:44:03.643Z,101274.81
2023-02-27T14:46:33.292Z,101275.50
2023-02-27T14:49:02.900Z,101276.34
2023-02-27T14:51:32.580Z,101269.25
2023-02-27T14:54:02.831Z,101264.75
2023-02-27T14:56:32.861Z,101265.91
2023-02-27T14:59:04.922Z,101266.16
2023-02-27T15:01:37.474Z,101265.63
2023-02-27T15:04:08.090Z,101269.06
2023-02-27T15:06:43.901Z,101268.34
2023-02-27T15:09:23.086Z,101261.50
2023-02-27T15:12:03.616Z,101267.47
2023-02-27T15:14:34.474Z,101264.31
2023-02-27T15:17:02.351Z,101258.22
2023-02-27T15:19:31.298Z,101274.59
2023-02-27T15:22:03.457Z,101279.44
2023-02-27T15:24:48.880Z,101270.03
2023-02-27T15:27:21.161Z,101264.53
2023-02-27T15:29:52.154Z,101263.53
2023-02-27T15:32:28.645Z,101258.38
2023-02-27T15:34:57.489Z,101268.38
2023-02-27T15:37:27.859Z,101260.63
2023-02-27T15:39:56.325Z,101267.94
2023-02-27T15:42:28.694Z,101262.72
2023-02-27T15:44:58.258Z,101270.44
2023-02-27T15:47:28.441Z,101269.59
2023-02-27T15:50:01.641Z,101268.34
2023-02-27T15:52:33.898Z,101263.06
2023-02-27T15:55:03.581Z,101268.00
2023-02-27T15:57:34.401Z,101273.00
2023-02-27T16:00:02.403Z,101271.34
2023-02-27T16:02:34.852Z,101268.53
2023-02-27T16:05:02.791Z,101275.38
2023-02-27T16:07:44.309Z,101276.84
2023-02-27T16:10:20.838Z,101276.97
2023-02-27T16:12:50.032Z,101279.16
2023-02-27T16:15:28.193Z,101277.78
2023-02-27T16:17:59.038Z,101286.69
2023-02-27T16:20:39.405Z,101284.56
2023-02-27T16:23:16.307Z,101301.03
2023-02-27T16:26:00.235Z,101297.47
2023-02-27T16:28:32.984Z,101304.78
2023-02-27T16:31:01.073Z,101305.94
2023-02-27T16:33:32.829Z,101305.66
2023-02-27T16:36:17.646Z,101308.41
2023-02-27T16:38:45.731Z,101308.38
2023-02-27T16:41:16.524Z,101312.34
2023-02-27T16:43:47.417Z,101313.38
2023-02-27T16:46:20.276Z,101313.13
2023-02-27T16:48:50.730Z,101319.44
2023-02-27T16:51:20.611Z,101317.53
2023-02-27T16:53:48.743Z,101322.50
2023-02-27T16:56:23.579Z,101327.16
2023-02-27T16:58:55.777Z,101328.22
2023-02-27T17:01:23.662Z,101330.75
2023-02-27T17:03:53.120Z,101329.41
2023-02-27T17:06:21.068Z,101334.72
2023-02-27T17:08:48.949Z,101335.97
2023-02-27T17:11:16.763Z,101337.66
2023-02-27T17:13:44.532Z,101339.81
2023-02-27T17:16:15.630Z,101352.78
2023-02-27T17:18:43.392Z,101351.16
2023-02-27T17:21:11.140Z,101358.09
2023-02-27T17:23:39.023Z,101357.53
2023-02-27T17:26:07.400Z,101368.16
2023-02-27T17:28:35.180Z,101364.97
2023-02-27T17:31:03.257Z,101368.47
2023-02-27T17:33:33.373Z,101372.00
2023-02-27T17:36:04.268Z,101375.56
2023-02-27T17:38:32.276Z,101385.50
2023-02-27T17:41:00.194Z,101384.78
2023-02-27T17:43:28.303Z,101381.41
2023-02-27T17:45:57.773Z,101383.28
2023-02-27T17:48:25.718Z,101384.16
2023-02-27T17:50:54.879Z,101400.72
2023-02-27T17:53:22.647Z,101398.34
2023-02-27T17:55:50.348Z,101399.50
2023-02-27T17:58:18.777Z,101403.28
2023-02-27T18:00:46.577Z,101410.41
2023-02-27T18:03:14.282Z,101411.25
2023-02-27T18:05:49.070Z,101415.53
2023-02-27T18:08:18.273Z,101413.13
2023-02-27T18:10:48.864Z,101410.59
2023-02-27T18:13:18.066Z,101416.94
2023-02-27T18:15:46.346Z,101422.22
2023-02-27T18:18:14.129Z,101420.72
2023-02-27T18:20:41.982Z,101422.56
2023-02-27T18:23:10.243Z,101427.16
2023-02-27T18:25:39.699Z,101429.19
2023-02-27T18:28:08.723Z,101427.22
2023-02-27T18:30:39.749Z,101432.56
2023-02-27T18:33:07.511Z,101437.16
2023-02-27T18:35:35.297Z,101431.00
2023-02-27T18:38:03.780Z,101424.94
2023-02-27T18:40:32.030Z,101432.66
2023-02-27T18:43:01.219Z,101435.34
2023-02-27T18:45:29.736Z,101431.09
2023-02-27T18:47:57.546Z,101438.84
2023-02-27T18:50:26.084Z,101437.19
2023-02-27T18:52:56.101Z,101439.78
2023-02-27T18:55:23.915Z,101435.53
2023-02-27T18:57:51.747Z,101438.28
2023-02-27T19:00:24.184Z,101439.19
2023-02-27T19:02:52.167Z,101433.94
2023-02-27T19:05:20.305Z,101435.13
2023-02-27T19:07:48.067Z,101439.59
2023-02-27T19:10:15.898Z,101439.75
2023-02-27T19:12:43.803Z,101445.94
2023-02-27T19:15:12.458Z,101433.72
2023-02-27T19:17:41.674Z,101436.34
2023-02-27T19:20:14.349Z,101444.19
2023-02-27T19:22:42.182Z,101438.97
2023-02-27T19:25:10.194Z,101441.66
2023-02-27T19:27:38.100Z,101435.59
2023-02-27T19:30:08.165Z,101440.88
2023-02-27T19:32:37.036Z,101436.72
2023-02-27T19:35:07.164Z,101432.53
2023-02-27T19:37:34.897Z,101436.00
2023-02-27T19:40:03.876Z,101438.75
2023-02-27T19:42:31.949Z,101440.50
2023-02-27T19:44:59.984Z,101437.94
2023-02-27T19:47:27.886Z,101447.56
2023-02-27T19:49:55.722Z,101436.31
2023-02-27T19:52:24.926Z,101444.31
2023-02-27T19:54:52.640Z,101446.28
2023-02-27T19:57:20.584Z,101446.22
2023-02-27T19:59:48.464Z,101446.34
2023-02-27T20:02:16.244Z,101446.38
2023-02-27T20:04:44.587Z,101450.66
2023-02-27T20:07:12.444Z,101453.34
2023-02-27T20:09:41.721Z,101451.63
2023-02-27T20:12:09.549Z,101445.41
2023-02-27T20:14:37.628Z,101445.41
2023-02-27T20:17:05.437Z,101453.25
2023-02-27T20:19:33.398Z,101448.13
2023-02-27T20:22:01.255Z,101448.16
2023-02-27T20:24:29.193Z,101443.03
2023-02-27T20:26:59.342Z,101441.34
2023-02-27T20:29:28.814Z,101444.00
2023-02-27T20:31:57.397Z,101444.91
2023-02-27T20:34:27.024Z,101445.84
2023-02-27T20:36:56.364Z,101441.47
2023-02-27T20:39:24.928Z,101440.72
2023-02-27T20:41:52.837Z,101441.53
2023-02-27T20:44:22.008Z,101436.31
2023-02-27T20:46:49.835Z,101443.25
2023-02-27T20:49:17.855Z,101437.94
2023-02-27T20:51:45.637Z,101435.19
2023-02-27T20:54:16.698Z,101428.28
2023-02-27T20:56:44.594Z,101427.28
2023-02-27T20:59:15.448Z,101435.03
2023-02-27T21:01:51.376Z,101429.66
2023-02-27T21:04:22.287Z,101430.59
2023-02-27T21:06:50.437Z,101437.53
2023-02-27T21:09:18.868Z,101437.59
2023-02-27T21:11:46.727Z,101433.22
2023-02-27T21:14:14.564Z,101440.25
2023-02-27T21:16:42.241Z,101440.97
2023-02-27T21:19:11.411Z,101436.78
2023-02-27T21:21:39.188Z,101448.94
2023-02-27T21:24:07.446Z,101444.41
2023-02-27T21:26:37.845Z,101445.19
2023-02-27T21:29:08.003Z,101442.69
2023-02-27T21:31:37.298Z,101448.00
2023-02-27T21:34:07.491Z,101441.06
2023-02-27T21:36:38.293Z,101439.19
2023-02-27T21:39:08.226Z,101439.13
2023-02-27T21:41:35.867Z,101441.69
2023-02-27T21:44:06.011Z,101434.78
2023-02-27T21:46:34.945Z,101440.13
2023-02-27T21:49:03.077Z,101435.84
2023-02-27T21:51:40.586Z,101432.53
2023-02-27T21:54:12.561Z,101434.34
2023-02-27T21:56:40.801Z,101428.28
2023-02-27T21:59:09.130Z,101430.09
2023-02-27T22:01:37.260Z,101427.50
2023-02-27T22:04:05.574Z,101423.16
2023-02-27T22:06:35.490Z,101428.34
2023-02-27T22:09:05.662Z,101416.16
2023-02-27T22:11:35.571Z,101424.06
2023-02-27T22:14:04.198Z,101419.72
2023-02-27T22:16:31.894Z,101418.81
2023-02-27T22:18:59.673Z,101419.66
2023-02-27T22:21:28.619Z,101411.88
2023-02-27T22:23:58.147Z,101429.44
2023-02-27T22:26:28.103Z,101418.06
2023-02-27T22:28:58.525Z,101418.06
2023-02-27T22:31:29.200Z,101421.44
2023-02-27T22:34:01.719Z,101417.16
2023-02-27T22:36:31.691Z,101417.13
2023-02-27T22:39:00.010Z,101414.50
2023-02-27T22:41:30.634Z,101416.97
2023-02-27T22:44:01.382Z,101414.34
2023-02-27T22:46:31.671Z,101415.34
2023-02-27T22:49:01.355Z,101423.06
2023-02-27T22:51:29.846Z,101416.16
2023-02-27T22:53:59.428Z,101411.09
2023-02-27T22:56:27.538Z,101412.00
2023-02-27T22:58:55.592Z,101413.84
2023-02-27T23:01:26.293Z,101413.00
2023-02-27T23:03:57.523Z,101406.16
2023-02-27T23:06:28.497Z,101410.59
2023-02-27T23:08:56.316Z,101410.56
2023-02-27T23:11:24.522Z,101408.06
2023-02-27T23:13:52.611Z,101415.16
2023-02-27T23:16:21.526Z,101418.72
2023-02-27T23:18:54.008Z,101410.19
2023-02-27T23:21:24.456Z,101407.72
2023-02-27T23:23:53.784Z,101411.28
2023-02-27T23:26:22.944Z,101415.00
2023-02-27T23:28:50.770Z,101404.63
2023-02-27T23:31:18.753Z,101408.25
2023-02-27T23:33:46.750Z,101413.66
2023-02-27T23:36:16.358Z,101414.72
2023-02-27T23:38:46.501Z,101414.84
2023-02-27T23:41:16.764Z,101413.19
2023-02-27T23:43:45.259Z,101414.00
2023-02-27T23:46:15.196Z,101419.25
2023-02-27T23:48:43.686Z,101415.03
2023-02-27T23:51:12.050Z,101421.25
2023-02-27T23:53:42.608Z,101416.06
2023-02-27T23:56:18.113Z,101421.44
2023-02-27T23:58:46.712Z,101423.19
